Stony Creek, Virginia
Current Conditions -  °F | °C
As of 1:55 PM on Friday 24 Oct 2014 (Local Time) from KPTB Reporting Station
Clear Clear  
Wind Chill: 67°   Ceiling: Unl
Heat Index: 67°   Visibility: 10mi
Dew Point: 39°   Wind: 7mph
Humidity: 35%   Direction: 270°W
Pressure: 29.97"   Gusts: NA
Location:  36.95°N, 77.4°W
Report Text: KPTB 241755Z AUTO 27006KT 10SM CLR 20/04 A2997 RMK AO2 T01960039 10196 20083
Loading
Personal Weather Stations






























Interactive Weather Map
Tropical Storm Tracking
New forecast layout! Learn more

10-Day Weather Forecast

Advertisements
Track Severe Weather on mobile